Airfield :
LOGIN :

Register | Disclaimer

   EN    FR    IT 

 










Legend :    VFR   Marginal VFR   IFR   Intensive IFR   Very Intensive IFR
Visi :
Ceiling :
>= 8 km
>= 3000ft
5 to 8 km
1000 to 3000 ft
1500m to 5 km
500 to 1000 ft
800 to 1500m
200 to 500 ft
< 800m
< 200 ft
Symbols :   Thunderstorms  Fog  Heavy snow  Heavy precipitations  Wind > 20 kt
SIGMETs :     Misc.  Thunderstorms  Icing  Turbulence  Mountain Waves  Volcanic Ashes






- Airport Elevation : 26 ft
- IATA code : BIA


LFKB - Bastia

CURRENT METAR :
  • 051000Z AUTO 03010KT 360V070 9999 FEW044 27/15 Q1012 TEMPO 03015G25KT

EXPIRED METARs :
  • 050930Z AUTO 01012KT 9999 FEW047 27/15 Q1012 TEMPO 03015G25KT
  • 050900Z AUTO 01012KT 340V040 CAVOK 27/16 Q1011 NOSIG
  • 050830Z AUTO 02015KT CAVOK 27/14 Q1011 NOSIG
  • 050800Z AUTO 03012KT 9999 FEW039 27/16 Q1011 NOSIG
  • 050730Z AUTO 01012KT 9999 FEW050 27/15 Q1010 NOSIG

TAF TAF LFKB
Valid from the 05 at 09:00 until the 06 at 09:00 UTC


050800Z 0509/0609 02012KT 9999 FEW050 TX29/0512Z TN20/0604Z
PROB30
TEMPO 0511/0513 03015G25KT
BECMG 0517/0520 22004KT
BECMG 0607/0609 03010KT
ATIS : +33 4 95 59 19 40



MET'MAP, your aeronautical weather chart ! - Copyright ORBIFLY December 2007 - Disclaimer

ORBIFLY MET'MAP TEAM :

Programming & Development : Alexandra Zaïnal
Concept & original design : Baudouin d'Aumeries
Assistance for programming : Marc-Olivier Méhu
Technical & hardware support : Manuel Goepfert

Contact : metmap@orbifly.com




SOURCES & CREDITS :

   NOAA